createdAt,value
2023-01-08T00:01:06.311Z,98181.88
2023-01-08T00:03:34.528Z,98178.50
2023-01-08T00:06:03.368Z,98174.28
2023-01-08T00:08:31.829Z,98158.31
2023-01-08T00:11:00.218Z,98146.75
2023-01-08T00:13:29.687Z,98145.06
2023-01-08T00:16:03.934Z,98157.25
2023-01-08T00:18:31.897Z,98145.56
2023-01-08T00:20:59.918Z,98142.72
2023-01-08T00:23:28.279Z,98141.50
2023-01-08T00:25:58.193Z,98151.81
2023-01-08T00:28:26.216Z,98161.44
2023-01-08T00:30:55.381Z,98150.00
2023-01-08T00:33:23.203Z,98150.84
2023-01-08T00:35:51.082Z,98151.97
2023-01-08T00:38:18.882Z,98144.81
2023-01-08T00:40:46.733Z,98139.16
2023-01-08T00:43:14.477Z,98128.13
2023-01-08T00:45:43.348Z,98122.25
2023-01-08T00:48:14.901Z,98116.66
2023-01-08T00:50:42.787Z,98096.41
2023-01-08T00:53:10.611Z,98098.78
2023-01-08T00:55:38.580Z,98108.59
2023-01-08T00:58:06.317Z,98099.63
2023-01-08T01:00:34.145Z,98107.31
2023-01-08T01:03:01.881Z,98110.75
2023-01-08T01:05:33.451Z,98108.88
2023-01-08T01:08:01.262Z,98102.66
2023-01-08T01:10:28.965Z,98091.84
2023-01-08T01:12:56.777Z,98092.06
2023-01-08T01:15:24.509Z,98082.19
2023-01-08T01:17:52.348Z,98091.84
2023-01-08T01:20:20.247Z,98094.16
2023-01-08T01:22:49.282Z,98087.94
2023-01-08T01:25:19.384Z,98093.75
2023-01-08T01:27:47.210Z,98091.00
2023-01-08T01:30:17.205Z,98095.88
2023-01-08T01:32:44.955Z,98091.25
2023-01-08T01:35:12.960Z,98084.50
2023-01-08T01:37:40.712Z,98082.41
2023-01-08T01:40:11.145Z,98093.97
2023-01-08T01:42:41.600Z,98097.75
2023-01-08T01:45:21.260Z,98109.09
2023-01-08T01:47:53.593Z,98103.72
2023-01-08T01:50:26.923Z,98109.28
2023-01-08T01:53:00.264Z,98109.06
2023-01-08T01:55:30.132Z,98101.84
2023-01-08T01:58:04.469Z,98097.94
2023-01-08T02:00:33.956Z,98096.69
2023-01-08T02:03:02.186Z,98091.38
2023-01-08T02:05:41.780Z,98101.25
2023-01-08T02:08:13.737Z,98088.56
2023-01-08T02:10:49.964Z,98084.69
2023-01-08T02:13:28.660Z,98085.41
2023-01-08T02:16:01.477Z,98083.88
2023-01-08T02:18:36.870Z,98086.19
2023-01-08T02:21:09.939Z,98082.78
2023-01-08T02:23:47.209Z,98069.78
2023-01-08T02:26:21.056Z,98059.47
2023-01-08T02:28:54.172Z,98052.13
2023-01-08T02:31:24.830Z,98052.94
2023-01-08T02:33:55.300Z,98041.75
2023-01-08T02:36:37.144Z,98038.91
2023-01-08T02:39:15.596Z,98035.22
2023-01-08T02:42:02.747Z,98025.56
2023-01-08T02:44:46.093Z,98027.13
2023-01-08T02:47:25.857Z,98023.00
2023-01-08T02:50:03.508Z,98014.00
2023-01-08T02:52:33.718Z,98008.81
2023-01-08T02:55:04.525Z,97997.19
2023-01-08T02:57:35.315Z,98003.34
2023-01-08T03:00:06.225Z,97997.00
2023-01-08T03:02:38.543Z,98002.13
2023-01-08T03:05:13.138Z,98000.31
2023-01-08T03:07:41.319Z,97999.47
2023-01-08T03:10:09.743Z,97993.94
2023-01-08T03:12:47.036Z,97990.72
2023-01-08T03:15:22.253Z,97988.16
2023-01-08T03:17:53.915Z,97993.38
2023-01-08T03:20:24.259Z,97985.47
2023-01-08T03:22:55.668Z,97987.81
2023-01-08T03:25:25.540Z,97988.69
2023-01-08T03:27:57.723Z,97977.72
2023-01-08T03:30:26.527Z,97972.91
2023-01-08T03:32:56.803Z,97975.81
2023-01-08T03:35:26.060Z,97972.72
2023-01-08T03:37:58.217Z,97968.56
2023-01-08T03:40:30.440Z,97965.66
2023-01-08T03:42:59.623Z,97956.97
2023-01-08T03:45:31.181Z,97955.81
2023-01-08T03:48:02.150Z,97950.97
2023-01-08T03:50:33.377Z,97950.06
2023-01-08T03:53:01.258Z,97950.22
2023-01-08T03:55:29.107Z,97954.03
2023-01-08T03:58:00.391Z,97962.78
2023-01-08T04:00:28.268Z,97951.31
2023-01-08T04:02:58.285Z,97952.78
2023-01-08T04:05:26.160Z,97940.13
2023-01-08T04:07:56.157Z,97932.75
2023-01-08T04:10:23.877Z,97934.28
2023-01-08T04:12:51.698Z,97932.44
2023-01-08T04:15:20.963Z,97934.13
2023-01-08T04:17:48.754Z,97930.13
2023-01-08T04:20:16.925Z,97922.59
2023-01-08T04:22:44.676Z,97924.84
2023-01-08T04:25:14.514Z,97933.50
2023-01-08T04:27:42.208Z,97934.47
2023-01-08T04:30:11.527Z,97939.47
2023-01-08T04:32:42.985Z,97930.13
2023-01-08T04:35:11.313Z,97940.97
2023-01-08T04:37:39.025Z,97939.28
2023-01-08T04:40:07.988Z,97944.34
2023-01-08T04:42:35.677Z,97936.91
2023-01-08T04:45:03.554Z,97945.25
2023-01-08T04:47:31.485Z,97948.13
2023-01-08T04:50:00.728Z,97951.50
2023-01-08T04:52:29.344Z,97957.69
2023-01-08T04:54:57.115Z,97950.75
2023-01-08T04:57:24.810Z,97945.63
2023-01-08T04:59:52.625Z,97951.50
2023-01-08T05:02:20.610Z,97948.53
2023-01-08T05:04:48.971Z,97939.31
2023-01-08T05:07:20.369Z,97948.69
2023-01-08T05:09:48.053Z,97939.56
2023-01-08T05:12:15.877Z,97947.47
2023-01-08T05:14:43.587Z,97938.63
2023-01-08T05:17:11.361Z,97935.88
2023-01-08T05:19:39.087Z,97956.59
2023-01-08T05:22:06.822Z,97964.34
2023-01-08T05:24:36.344Z,97959.53
2023-01-08T05:27:04.027Z,97960.59
2023-01-08T05:29:31.808Z,97951.44
2023-01-08T05:32:01.940Z,97957.13
2023-01-08T05:34:29.926Z,97950.84
2023-01-08T05:36:57.709Z,97949.50
2023-01-08T05:39:27.544Z,97946.00
2023-01-08T05:41:56.552Z,97942.47
2023-01-08T05:44:24.330Z,97937.47
2023-01-08T05:46:54.186Z,97935.56
2023-01-08T05:49:23.844Z,97937.44
2023-01-08T05:51:51.598Z,97942.53
2023-01-08T05:54:19.527Z,97950.53
2023-01-08T05:56:47.324Z,97950.06
2023-01-08T05:59:16.458Z,97953.56
2023-01-08T06:01:44.226Z,97948.31
2023-01-08T06:04:11.932Z,97954.34
2023-01-08T06:06:39.738Z,97942.56
2023-01-08T06:09:07.523Z,97944.50
2023-01-08T06:11:35.288Z,97946.06
2023-01-08T06:14:03.100Z,97950.56
2023-01-08T06:16:32.141Z,97941.72
2023-01-08T06:18:59.882Z,97937.25
2023-01-08T06:21:27.628Z,97931.97
2023-01-08T06:23:57.949Z,97939.50
2023-01-08T06:26:25.722Z,97934.28
2023-01-08T06:28:53.451Z,97934.38
2023-01-08T06:31:21.222Z,97926.09
2023-01-08T06:33:50.544Z,97919.94
2023-01-08T06:36:18.316Z,97921.41
2023-01-08T06:38:46.114Z,97923.09
2023-01-08T06:41:13.905Z,97913.69
2023-01-08T06:43:41.628Z,97912.50
2023-01-08T06:46:10.679Z,97904.56
2023-01-08T06:48:38.593Z,97902.03
2023-01-08T06:51:07.894Z,97904.81
2023-01-08T06:53:35.765Z,97918.66
2023-01-08T06:56:04.719Z,97919.94
2023-01-08T06:58:32.642Z,97916.78
2023-01-08T07:01:00.622Z,97914.06
2023-01-08T07:03:28.595Z,97922.78
2023-01-08T07:05:56.423Z,97911.63
2023-01-08T07:08:27.877Z,97913.69
2023-01-08T07:10:55.981Z,97920.72
2023-01-08T07:13:24.259Z,97916.88
2023-01-08T07:15:52.044Z,97923.69
2023-01-08T07:18:19.885Z,97920.78
2023-01-08T07:20:49.308Z,97918.13
2023-01-08T07:23:17.128Z,97922.56
2023-01-08T07:25:47.466Z,97921.22
2023-01-08T07:28:15.294Z,97931.09
2023-01-08T07:30:43.249Z,97925.88
2023-01-08T07:33:10.990Z,97925.38
2023-01-08T07:35:39.314Z,97926.00
2023-01-08T07:38:07.131Z,97929.94
2023-01-08T07:40:39.362Z,97926.50
2023-01-08T07:43:12.344Z,97923.41
2023-01-08T07:45:40.558Z,97929.97
2023-01-08T07:48:10.559Z,97932.56
2023-01-08T07:50:41.420Z,97928.25
2023-01-08T07:53:09.898Z,97931.47
2023-01-08T07:55:37.789Z,97927.75
2023-01-08T07:58:11.061Z,97929.53
2023-01-08T08:00:39.392Z,97930.38
2023-01-08T08:03:09.253Z,97922.56
2023-01-08T08:05:37.052Z,97919.56
2023-01-08T08:08:09.679Z,97924.19
2023-01-08T08:10:37.857Z,97922.72
2023-01-08T08:13:05.812Z,97921.19
2023-01-08T08:15:35.662Z,97915.91
2023-01-08T08:18:03.687Z,97923.91
2023-01-08T08:20:31.925Z,97922.38
2023-01-08T08:23:03.155Z,97923.16
2023-01-08T08:25:31.944Z,97921.22
2023-01-08T08:28:01.645Z,97916.19
2023-01-08T08:30:31.272Z,97916.56
2023-01-08T08:33:02.211Z,97912.59
2023-01-08T08:35:31.698Z,97908.72
2023-01-08T08:37:59.774Z,97907.03
2023-01-08T08:40:28.359Z,97913.75
2023-01-08T08:42:57.526Z,97903.47
2023-01-08T08:45:25.702Z,97895.25
2023-01-08T08:47:53.528Z,97904.34
2023-01-08T08:50:23.436Z,97902.16
2023-01-08T08:52:51.256Z,97899.09
2023-01-08T08:55:19.319Z,97895.03
2023-01-08T08:57:47.976Z,97895.75
2023-01-08T09:00:16.986Z,97894.09
2023-01-08T09:02:45.033Z,97887.38
2023-01-08T09:05:13.523Z,97894.00
2023-01-08T09:07:42.665Z,97889.06
2023-01-08T09:10:10.618Z,97897.94
2023-01-08T09:12:38.442Z,97894.53
2023-01-08T09:15:07.100Z,97892.84
2023-01-08T09:17:36.833Z,97891.69
2023-01-08T09:20:05.924Z,97894.78
2023-01-08T09:22:34.019Z,97887.25
2023-01-08T09:25:05.974Z,97898.28
2023-01-08T09:27:33.710Z,97893.22
2023-01-08T09:30:01.453Z,97899.28
2023-01-08T09:32:29.289Z,97900.63
2023-01-08T09:34:57.221Z,97892.78
2023-01-08T09:37:25.231Z,97894.25
2023-01-08T09:40:01.771Z,97889.88
2023-01-08T09:42:32.917Z,97897.59
2023-01-08T09:45:03.652Z,97894.25
2023-01-08T09:47:37.278Z,97889.22
2023-01-08T09:50:09.253Z,97894.78
2023-01-08T09:52:39.680Z,97893.28
2023-01-08T09:55:14.942Z,97890.63
2023-01-08T09:57:48.242Z,97881.25
2023-01-08T10:00:18.709Z,97884.84
2023-01-08T10:02:46.760Z,97887.69
2023-01-08T10:05:16.543Z,97897.03
2023-01-08T10:07:45.058Z,97886.47
2023-01-08T10:10:19.616Z,97900.78
2023-01-08T10:12:50.411Z,97904.50
2023-01-08T10:15:21.179Z,97897.97
2023-01-08T10:18:00.096Z,97890.25
2023-01-08T10:20:28.889Z,97886.91
2023-01-08T10:22:57.020Z,97885.19
2023-01-08T10:25:29.080Z,97894.94
2023-01-08T10:28:03.162Z,97880.59
2023-01-08T10:30:38.101Z,97878.66
2023-01-08T10:33:11.837Z,97879.94
2023-01-08T10:35:41.516Z,97867.84
2023-01-08T10:38:26.670Z,97867.31
2023-01-08T10:40:54.741Z,97864.84
2023-01-08T10:43:29.465Z,97852.91
2023-01-08T10:46:00.503Z,97849.94
2023-01-08T10:48:36.463Z,97852.03
2023-01-08T10:51:17.018Z,97838.84
2023-01-08T10:53:45.276Z,97850.63
2023-01-08T10:56:24.294Z,97849.00
2023-01-08T10:58:54.136Z,97855.28
2023-01-08T11:05:43.065Z,97839.47
2023-01-08T11:08:17.793Z,97842.81
2023-01-08T11:15:07.210Z,97832.44
2023-01-08T11:17:35.674Z,97832.59
2023-01-08T11:20:20.023Z,97830.38
2023-01-08T11:22:47.891Z,97820.31
2023-01-08T11:25:26.638Z,97819.78
2023-01-08T11:27:56.435Z,97814.06
2023-01-08T11:30:32.384Z,97814.91
2023-01-08T11:33:05.848Z,97815.91
2023-01-08T11:35:38.773Z,97805.16
2023-01-08T11:38:08.263Z,97797.38
2023-01-08T11:40:52.303Z,97799.91
2023-01-08T11:43:30.686Z,97790.44
2023-01-08T11:46:21.493Z,97775.97
2023-01-08T11:49:10.414Z,97780.00
2023-01-08T11:51:49.889Z,97765.94
2023-01-08T11:54:32.861Z,97758.97
2023-01-08T12:01:38.707Z,97748.56
2023-01-08T12:04:24.350Z,97744.66
2023-01-08T12:26:04.980Z,97714.31
2023-01-08T12:28:59.476Z,97720.16
2023-01-08T12:32:01.570Z,97728.09
2023-01-08T12:34:39.582Z,97722.94
2023-01-08T12:37:14.481Z,97722.41
2023-01-08T12:39:48.931Z,97712.47
2023-01-08T12:42:24.508Z,97705.81
2023-01-08T12:44:55.108Z,97708.88
2023-01-08T12:47:27.902Z,97716.97
2023-01-08T12:50:05.376Z,97710.28
2023-01-08T12:52:40.433Z,97708.59
2023-01-08T12:55:22.456Z,97702.47
2023-01-08T12:58:01.586Z,97715.56
2023-01-08T13:00:37.609Z,97715.69
2023-01-08T13:03:14.941Z,97704.53
2023-01-08T13:05:48.391Z,97700.81
2023-01-08T13:08:34.439Z,97700.94
2023-01-08T13:11:03.945Z,97693.44
2023-01-08T13:13:36.545Z,97686.59
2023-01-08T13:16:10.179Z,97688.28
2023-01-08T13:18:39.886Z,97685.19
2023-01-08T13:21:12.366Z,97684.81
2023-01-08T13:23:40.459Z,97688.66
2023-01-08T13:26:08.583Z,97682.13
2023-01-08T13:28:46.008Z,97685.63
2023-01-08T13:31:28.430Z,97677.69
2023-01-08T13:33:56.797Z,97679.66
2023-01-08T13:36:26.997Z,97672.28
2023-01-08T13:39:19.316Z,97664.88
2023-01-08T13:41:59.527Z,97661.56
2023-01-08T13:44:31.106Z,97656.28
2023-01-08T13:47:03.067Z,97654.16
2023-01-08T13:49:36.788Z,97639.25
2023-01-08T13:52:05.189Z,97637.31
2023-01-08T13:54:38.515Z,97633.97
2023-01-08T13:57:13.511Z,97641.66
2023-01-08T13:59:49.136Z,97634.66
2023-01-08T14:02:26.531Z,97632.53
2023-01-08T14:04:55.578Z,97636.28
2023-01-08T14:07:24.940Z,97636.47
2023-01-08T14:09:53.091Z,97630.22
2023-01-08T14:12:23.698Z,97626.34
2023-01-08T14:14:58.802Z,97632.56
2023-01-08T14:17:32.329Z,97625.56
2023-01-08T14:20:00.666Z,97619.50
2023-01-08T14:22:33.089Z,97610.38
2023-01-08T14:25:07.823Z,97614.72
2023-01-08T14:27:36.352Z,97621.97
2023-01-08T14:30:17.093Z,97623.97
2023-01-08T14:32:46.388Z,97623.88
2023-01-08T14:35:18.083Z,97619.44
2023-01-08T14:37:46.007Z,97625.22
2023-01-08T14:40:18.717Z,97629.09
2023-01-08T14:42:53.017Z,97618.16
2023-01-08T14:45:48.650Z,97618.03
2023-01-08T14:48:26.044Z,97617.28
2023-01-08T14:51:05.694Z,97606.03
2023-01-08T14:53:36.706Z,97592.53
2023-01-08T14:56:06.679Z,97591.94
2023-01-08T14:58:40.173Z,97598.09
2023-01-08T15:01:17.019Z,97595.19
2023-01-08T15:03:46.690Z,97593.63
2023-01-08T15:06:25.398Z,97587.81
2023-01-08T15:08:53.937Z,97581.19
2023-01-08T15:11:24.591Z,97569.69
2023-01-08T15:13:54.402Z,97570.88
2023-01-08T15:16:29.679Z,97564.53
2023-01-08T15:19:04.157Z,97566.84
2023-01-08T15:21:32.558Z,97558.69
2023-01-08T15:24:02.192Z,97558.41
2023-01-08T15:26:53.502Z,97550.19
2023-01-08T15:29:46.868Z,97531.66
2023-01-08T15:32:23.699Z,97529.22
2023-01-08T15:34:51.654Z,97541.50
2023-01-08T15:37:19.511Z,97534.69
2023-01-08T15:39:47.507Z,97538.31
2023-01-08T15:42:38.441Z,97529.78
2023-01-08T15:45:08.420Z,97530.75
2023-01-08T15:47:37.703Z,97535.97
2023-01-08T15:50:06.885Z,97532.88
2023-01-08T15:52:35.759Z,97523.66
2023-01-08T15:55:05.613Z,97529.84
2023-01-08T15:57:33.535Z,97519.66
2023-01-08T16:00:02.516Z,97513.63
2023-01-08T16:02:46.246Z,97510.53
2023-01-08T16:05:15.158Z,97517.75
2023-01-08T16:07:42.926Z,97514.16
2023-01-08T16:10:11.234Z,97516.72
2023-01-08T16:12:39.220Z,97515.59
2023-01-08T16:15:08.665Z,97513.41
2023-01-08T16:17:36.633Z,97509.91
2023-01-08T16:20:06.458Z,97513.06
2023-01-08T16:22:36.401Z,97508.72
2023-01-08T16:25:04.712Z,97502.16
2023-01-08T16:27:35.421Z,97491.63
2023-01-08T16:30:07.905Z,97487.41
2023-01-08T16:32:35.738Z,97481.56
2023-01-08T16:35:05.149Z,97480.19
2023-01-08T16:37:33.043Z,97474.47
2023-01-08T16:40:02.979Z,97472.25
2023-01-08T16:42:30.863Z,97465.41
2023-01-08T16:44:58.731Z,97464.31
2023-01-08T16:47:26.599Z,97451.22
2023-01-08T16:49:54.426Z,97454.81
2023-01-08T16:52:23.804Z,97452.00
2023-01-08T16:54:51.699Z,97449.06
2023-01-08T16:57:19.603Z,97442.28
2023-01-08T16:59:47.528Z,97440.06
2023-01-08T17:02:15.388Z,97431.97
2023-01-08T17:04:45.947Z,97437.56
2023-01-08T17:07:14.459Z,97429.78
2023-01-08T17:09:43.848Z,97424.50
2023-01-08T17:12:11.708Z,97426.47
2023-01-08T17:14:39.587Z,97428.66
2023-01-08T17:17:07.415Z,97427.81
2023-01-08T17:19:35.318Z,97428.28
2023-01-08T17:22:03.176Z,97414.75
2023-01-08T17:24:31.087Z,97408.47
2023-01-08T17:27:00.277Z,97397.50
2023-01-08T17:29:28.246Z,97408.38
2023-01-08T17:31:56.027Z,97400.97
2023-01-08T17:34:23.797Z,97402.41
2023-01-08T17:36:51.603Z,97400.72
2023-01-08T17:39:19.481Z,97401.78
2023-01-08T17:42:04.702Z,97406.41
2023-01-08T17:44:34.228Z,97402.69
2023-01-08T17:47:02.180Z,97406.31
2023-01-08T17:49:30.958Z,97405.00
2023-01-08T17:51:58.848Z,97403.09
2023-01-08T17:54:26.670Z,97392.22
2023-01-08T17:56:54.634Z,97384.22
2023-01-08T17:59:22.580Z,97382.72
2023-01-08T18:01:53.755Z,97379.47
2023-01-08T18:04:21.917Z,97376.09
2023-01-08T18:06:50.025Z,97363.03
2023-01-08T18:09:18.606Z,97357.16
2023-01-08T18:11:49.013Z,97349.94
2023-01-08T18:14:17.972Z,97339.69
2023-01-08T18:16:46.099Z,97336.66
2023-01-08T18:19:16.655Z,97333.56
2023-01-08T18:21:45.499Z,97330.81
2023-01-08T18:24:14.213Z,97327.78
2023-01-08T18:26:42.960Z,97331.97
2023-01-08T18:29:10.796Z,97340.31
2023-01-08T18:31:38.823Z,97328.19
2023-01-08T18:34:06.807Z,97312.19
2023-01-08T18:36:36.714Z,97317.56
2023-01-08T18:39:04.700Z,97315.00
2023-01-08T18:41:50.242Z,97312.69
2023-01-08T18:44:18.054Z,97324.78
2023-01-08T18:46:48.020Z,97326.50
2023-01-08T18:49:16.503Z,97326.81
2023-01-08T18:51:45.768Z,97328.56
2023-01-08T18:54:16.923Z,97324.56
2023-01-08T18:56:46.392Z,97325.34
2023-01-08T18:59:14.540Z,97321.19
2023-01-08T19:01:44.828Z,97314.25
2023-01-08T19:04:17.056Z,97299.59
2023-01-08T19:06:46.661Z,97307.09
2023-01-08T19:09:16.291Z,97304.97
2023-01-08T19:11:44.441Z,97300.41
2023-01-08T19:14:13.287Z,97297.72
2023-01-08T19:16:43.221Z,97292.44
2023-01-08T19:19:11.417Z,97291.84
2023-01-08T19:21:39.416Z,97292.81
2023-01-08T19:24:09.346Z,97285.38
2023-01-08T19:26:39.603Z,97281.19
2023-01-08T19:29:07.817Z,97274.22
2023-01-08T19:31:36.011Z,97271.13
2023-01-08T19:34:04.687Z,97262.22
2023-01-08T19:36:33.978Z,97262.88
2023-01-08T19:39:02.035Z,97256.69
2023-01-08T19:41:48.899Z,97250.03
2023-01-08T19:44:16.810Z,97252.13
2023-01-08T19:46:44.589Z,97244.22
2023-01-08T19:49:12.390Z,97245.47
2023-01-08T19:51:40.423Z,97240.59
2023-01-08T19:54:08.551Z,97243.25
2023-01-08T19:56:37.817Z,97241.88
2023-01-08T19:59:05.856Z,97230.63
2023-01-08T20:01:34.087Z,97235.72
2023-01-08T20:04:02.002Z,97234.41
2023-01-08T20:06:29.852Z,97221.00
2023-01-08T20:08:58.942Z,97223.53
2023-01-08T20:11:27.429Z,97225.31
2023-01-08T20:14:00.378Z,97225.91
2023-01-08T20:16:29.682Z,97219.06
2023-01-08T20:18:59.242Z,97221.31
2023-01-08T20:21:27.109Z,97220.19
2023-01-08T20:23:59.157Z,97210.44
2023-01-08T20:26:28.508Z,97204.47
2023-01-08T20:28:59.054Z,97207.34
2023-01-08T20:31:30.673Z,97209.25
2023-01-08T20:34:00.164Z,97211.03
2023-01-08T20:36:29.889Z,97204.41
2023-01-08T20:38:59.690Z,97207.34
2023-01-08T20:41:30.096Z,97206.44
2023-01-08T20:43:59.337Z,97198.97
2023-01-08T20:46:29.413Z,97192.28
2023-01-08T20:48:59.640Z,97187.38
2023-01-08T20:51:27.513Z,97190.13
2023-01-08T20:53:57.945Z,97181.25
2023-01-08T20:56:25.743Z,97172.94
2023-01-08T20:58:53.639Z,97173.81
2023-01-08T21:01:25.174Z,97169.69
2023-01-08T21:03:55.951Z,97163.31
2023-01-08T21:06:26.389Z,97159.94
2023-01-08T21:08:55.944Z,97163.31
2023-01-08T21:11:24.933Z,97155.41
2023-01-08T21:13:52.961Z,97153.31
2023-01-08T21:16:24.884Z,97155.78
2023-01-08T21:18:54.128Z,97151.34
2023-01-08T21:21:24.067Z,97142.69
2023-01-08T21:23:51.994Z,97140.91
2023-01-08T21:26:20.280Z,97138.00
2023-01-08T21:28:49.769Z,97133.03
2023-01-08T21:31:19.568Z,97134.31
2023-01-08T21:33:49.971Z,97127.94
2023-01-08T21:36:19.514Z,97114.34
2023-01-08T21:38:48.025Z,97108.72
2023-01-08T21:41:32.350Z,97099.31
2023-01-08T21:44:17.746Z,97098.16
2023-01-08T21:46:45.820Z,97087.63
2023-01-08T21:49:15.368Z,97086.94
2023-01-08T21:52:00.577Z,97087.13
2023-01-08T21:54:28.372Z,97084.34
2023-01-08T21:56:56.190Z,97076.44
2023-01-08T21:59:24.032Z,97077.59
2023-01-08T22:01:52.012Z,97080.88
2023-01-08T22:04:21.353Z,97077.94
2023-01-08T22:06:49.128Z,97077.34
2023-01-08T22:09:16.988Z,97070.50
2023-01-08T22:11:47.131Z,97069.63
2023-01-08T22:14:14.951Z,97063.53
2023-01-08T22:16:42.758Z,97066.16
2023-01-08T22:19:11.109Z,97065.06
2023-01-08T22:21:40.180Z,97073.78
2023-01-08T22:24:08.215Z,97068.59
2023-01-08T22:26:36.101Z,97069.25
2023-01-08T22:29:06.911Z,97065.00
2023-01-08T22:31:35.360Z,97065.84
2023-01-08T22:34:03.184Z,97066.66
2023-01-08T22:36:33.363Z,97062.25
2023-01-08T22:39:02.587Z,97049.19
2023-01-08T22:41:30.455Z,97049.06
2023-01-08T22:43:58.311Z,97049.75
2023-01-08T22:46:26.683Z,97045.03
2023-01-08T22:48:54.944Z,97050.81
2023-01-08T22:51:26.434Z,97049.47
2023-01-08T22:53:55.341Z,97056.00
2023-01-08T22:56:27.734Z,97059.72
2023-01-08T22:58:55.824Z,97048.22
2023-01-08T23:01:26.440Z,97054.78
2023-01-08T23:03:57.927Z,97054.34
2023-01-08T23:06:30.154Z,97054.91
2023-01-08T23:08:58.381Z,97052.53
2023-01-08T23:11:28.378Z,97046.28
2023-01-08T23:13:56.837Z,97046.00
2023-01-08T23:16:27.062Z,97047.78
2023-01-08T23:18:55.719Z,97049.19
2023-01-08T23:21:28.484Z,97046.81
2023-01-08T23:23:56.554Z,97036.16
2023-01-08T23:26:27.960Z,97040.72
2023-01-08T23:28:57.235Z,97032.41
2023-01-08T23:31:26.967Z,97033.38
2023-01-08T23:33:54.908Z,97037.81
2023-01-08T23:36:23.276Z,97013.69
2023-01-08T23:38:53.022Z,97011.56
2023-01-08T23:41:23.224Z,97010.28
2023-01-08T23:43:54.608Z,97021.25
2023-01-08T23:46:22.621Z,97013.50
2023-01-08T23:48:53.401Z,97012.00
2023-01-08T23:51:21.542Z,97010.94
2023-01-08T23:53:51.386Z,97011.28
2023-01-08T23:56:22.643Z,97003.94
2023-01-08T23:58:53.111Z,97005.16
